Terminal Aerodrome Forecast
Issued by NWS Caribou, ME

Home | Current Version | Previous Version | Text Only | Print | Product List | Glossary On
Versions: 1 2 3 4 5 6 7 8 9 10 11 12 13 14 15
000
FTUS41 KCAR 181754
TAFBGR
TAF
KBGR 181754Z 1818/1918 00000KT P6SM SCT045 BKN150
     FM182200 12005KT P6SM -RA SCT025 OVC045
     FM190200 06005KT P6SM -RA OVC025
     FM190500 02005KT P6SM -SN OVC020
     FM190700 35004KT P6SM SCT035 BKN100=

USA.gov is the U.S. government's official web portal to all federal, state and local government web resources and services.